DLH275 LIML-EDDF
Flight info
| Callsign | DLH275 |
|---|---|
| Flight time | 1h 4m |
| Altitude | 18000 |
| Route | PEPAG N851 ABESI/N0446F300 N851 UTAVO DCT ROLSA DCT LADOL T163 EMPAX EMPAX5B |
| Aircraft | A320/M-SDE2E3FGIJ1LORWXYZ/HB1 |
Departure
| Time | 2026-05-05 07:47 |
|---|---|
| Airport | Milano Linate Airport (LIML) |
Arrival
| Time | 2026-05-05 08:51 |
|---|---|
| Airport | Frankfurt Main Airport (EDDF) |
| Time | Latitude | Longitude | Altitude | Speed | Heading |
|---|---|---|---|---|---|
| 2026-05-05 07:28 | 45.45971 | 9.28033 | 365 ft | 0 kts | 2° |
| 2026-05-05 07:40 | 45.45958 | 9.28033 | 365 ft | 4 kts | 359° |
| 2026-05-05 07:40 | 45.45933 | 9.28035 | 366 ft | 4 kts | 344° |
| 2026-05-05 07:40 | 45.45912 | 9.28051 | 365 ft | 4 kts | 301° |
| 2026-05-05 07:40 | 45.45907 | 9.28070 | 363 ft | 0 kts | 268° |
| 2026-05-05 07:42 | 45.45907 | 9.28068 | 363 ft | 2 kts | 268° |
| 2026-05-05 07:43 | 45.45902 | 9.28006 | 364 ft | 10 kts | 249° |
| 2026-05-05 07:43 | 45.45820 | 9.27984 | 363 ft | 16 kts | 180° |
| 2026-05-05 07:43 | 45.45687 | 9.27982 | 363 ft | 22 kts | 181° |
| 2026-05-05 07:43 | 45.45534 | 9.27980 | 362 ft | 17 kts | 180° |
| 2026-05-05 07:44 | 45.45455 | 9.27922 | 367 ft | 17 kts | 266° |
| 2026-05-05 07:44 | 45.45439 | 9.27767 | 363 ft | 16 kts | 230° |
| 2026-05-05 07:44 | 45.45390 | 9.27642 | 362 ft | 10 kts | 255° |
| 2026-05-05 07:44 | 45.45351 | 9.27618 | 359 ft | 5 kts | 180° |
| 2026-05-05 07:45 | 45.45339 | 9.27619 | 359 ft | 0 kts | 175° |
| 2026-05-05 07:46 | 45.45272 | 9.27626 | 359 ft | 36 kts | 175° |
| 2026-05-05 07:46 | 45.44759 | 9.27680 | 360 ft | 107 kts | 175° |
| 2026-05-05 07:46 | 45.43833 | 9.27774 | 373 ft | 158 kts | 177° |
| 2026-05-05 07:47 | 45.42744 | 9.27874 | 1042 ft | 157 kts | 176° |
| 2026-05-05 07:47 | 45.41651 | 9.27985 | 1734 ft | 160 kts | 173° |
| 2026-05-05 07:47 | 45.40467 | 9.27985 | 2084 ft | 184 kts | 194° |
| 2026-05-05 07:47 | 45.39424 | 9.26797 | 2400 ft | 209 kts | 242° |
| 2026-05-05 07:48 | 45.39271 | 9.24722 | 2835 ft | 224 kts | 286° |
| 2026-05-05 07:48 | 45.40177 | 9.22885 | 3192 ft | 245 kts | 327° |
| 2026-05-05 07:48 | 45.41816 | 9.21943 | 3671 ft | 263 kts | 350° |
| 2026-05-05 07:48 | 45.43650 | 9.21532 | 4509 ft | 269 kts | 357° |
| 2026-05-05 07:49 | 45.45515 | 9.21259 | 5380 ft | 275 kts | 358° |
| 2026-05-05 07:49 | 45.47443 | 9.20960 | 6260 ft | 282 kts | 356° |
| 2026-05-05 07:49 | 45.49412 | 9.20586 | 7101 ft | 288 kts | 353° |
| 2026-05-05 07:49 | 45.51417 | 9.20132 | 7941 ft | 294 kts | 351° |
| 2026-05-05 07:50 | 45.53462 | 9.19613 | 8790 ft | 300 kts | 349° |
| 2026-05-05 07:50 | 45.55539 | 9.19053 | 9650 ft | 306 kts | 347° |
| 2026-05-05 07:50 | 45.57659 | 9.18467 | 10313 ft | 319 kts | 347° |
| 2026-05-05 07:50 | 45.59886 | 9.17840 | 10597 ft | 342 kts | 347° |
| 2026-05-05 07:51 | 45.62309 | 9.17155 | 10926 ft | 362 kts | 347° |
| 2026-05-05 07:51 | 45.64814 | 9.16456 | 11564 ft | 370 kts | 347° |
| 2026-05-05 07:51 | 45.67361 | 9.15752 | 12308 ft | 374 kts | 347° |
| 2026-05-05 07:51 | 45.69936 | 9.15045 | 13059 ft | 378 kts | 347° |
| 2026-05-05 07:52 | 45.72533 | 9.14330 | 13824 ft | 382 kts | 346° |
| 2026-05-05 07:52 | 45.75160 | 9.13604 | 14502 ft | 386 kts | 346° |
| 2026-05-05 07:52 | 45.77813 | 9.12872 | 15194 ft | 389 kts | 346° |
| 2026-05-05 07:52 | 45.80484 | 9.12135 | 15856 ft | 392 kts | 346° |
| 2026-05-05 07:53 | 45.83155 | 9.11395 | 16379 ft | 401 kts | 347° |
| 2026-05-05 07:53 | 45.85956 | 9.10609 | 16515 ft | 418 kts | 347° |
| 2026-05-05 07:53 | 45.88868 | 9.09788 | 16659 ft | 434 kts | 347° |
| 2026-05-05 07:53 | 45.91890 | 9.08938 | 16791 ft | 447 kts | 347° |
| 2026-05-05 07:54 | 45.94987 | 9.08075 | 17101 ft | 454 kts | 347° |
| 2026-05-05 07:54 | 45.98072 | 9.07222 | 17559 ft | 458 kts | 348° |
| 2026-05-05 07:54 | 46.01236 | 9.06471 | 17943 ft | 461 kts | 351° |
| 2026-05-05 07:54 | 46.04442 | 9.05883 | 18025 ft | 467 kts | 353° |
| 2026-05-05 07:55 | 46.07697 | 9.05406 | 18036 ft | 471 kts | 354° |
| 2026-05-05 07:55 | 46.10963 | 9.04972 | 18023 ft | 470 kts | 354° |
| 2026-05-05 07:55 | 46.14222 | 9.04539 | 18030 ft | 469 kts | 354° |
| 2026-05-05 07:55 | 46.17475 | 9.04079 | 18031 ft | 469 kts | 353° |
| 2026-05-05 07:56 | 46.20726 | 9.03628 | 18029 ft | 470 kts | 354° |
| 2026-05-05 07:56 | 46.23954 | 9.03197 | 18028 ft | 471 kts | 354° |
| 2026-05-05 07:56 | 46.27220 | 9.02768 | 18031 ft | 472 kts | 354° |
| 2026-05-05 07:56 | 46.30497 | 9.02336 | 18028 ft | 471 kts | 354° |
| 2026-05-05 07:57 | 46.33761 | 9.01898 | 18022 ft | 471 kts | 354° |
| 2026-05-05 07:57 | 46.37028 | 9.01459 | 18016 ft | 471 kts | 354° |
| 2026-05-05 07:57 | 46.40291 | 9.01022 | 18021 ft | 471 kts | 354° |
| 2026-05-05 07:57 | 46.43552 | 9.00585 | 18020 ft | 471 kts | 354° |
| 2026-05-05 07:58 | 46.46821 | 9.00145 | 18005 ft | 471 kts | 354° |
| 2026-05-05 07:58 | 46.50086 | 8.99708 | 18009 ft | 471 kts | 354° |
| 2026-05-05 07:58 | 46.53359 | 8.99273 | 18012 ft | 471 kts | 354° |
| 2026-05-05 07:58 | 46.56627 | 8.98834 | 17999 ft | 471 kts | 354° |
| 2026-05-05 07:59 | 46.59865 | 8.98397 | 18007 ft | 472 kts | 354° |
| 2026-05-05 07:59 | 46.63135 | 8.97952 | 17983 ft | 471 kts | 354° |
| 2026-05-05 07:59 | 46.66391 | 8.97506 | 18010 ft | 470 kts | 354° |
| 2026-05-05 07:59 | 46.69651 | 8.97058 | 18016 ft | 469 kts | 354° |
| 2026-05-05 08:00 | 46.72904 | 8.96615 | 17996 ft | 468 kts | 354° |
| 2026-05-05 08:00 | 46.75057 | 8.96326 | 18016 ft | 469 kts | 354° |
| 2026-05-05 08:00 | 46.79376 | 8.95740 | 17978 ft | 469 kts | 354° |
| 2026-05-05 08:00 | 46.82624 | 8.95291 | 17952 ft | 468 kts | 354° |
| 2026-05-05 08:01 | 46.85871 | 8.94842 | 17956 ft | 468 kts | 354° |
| 2026-05-05 08:01 | 46.88066 | 8.94540 | 17946 ft | 468 kts | 354° |
| 2026-05-05 08:01 | 46.91282 | 8.94100 | 17949 ft | 469 kts | 354° |
| 2026-05-05 08:01 | 46.94532 | 8.93657 | 17954 ft | 468 kts | 354° |
| 2026-05-05 08:02 | 46.97780 | 8.93214 | 17940 ft | 468 kts | 354° |
| 2026-05-05 08:02 | 47.01029 | 8.92771 | 17931 ft | 468 kts | 354° |
| 2026-05-05 08:02 | 47.04275 | 8.92329 | 17929 ft | 468 kts | 354° |
| 2026-05-05 08:02 | 47.07497 | 8.91889 | 17919 ft | 463 kts | 354° |
| 2026-05-05 08:03 | 47.10708 | 8.91448 | 17922 ft | 462 kts | 354° |
| 2026-05-05 08:03 | 47.13874 | 8.91012 | 17920 ft | 462 kts | 354° |
| 2026-05-05 08:03 | 47.17092 | 8.90568 | 17917 ft | 462 kts | 354° |
| 2026-05-05 08:03 | 47.20302 | 8.90124 | 17919 ft | 462 kts | 354° |
| 2026-05-05 08:04 | 47.23508 | 8.89680 | 17920 ft | 462 kts | 354° |
| 2026-05-05 08:04 | 47.26713 | 8.89234 | 17915 ft | 462 kts | 354° |
| 2026-05-05 08:04 | 47.29929 | 8.88993 | 17917 ft | 462 kts | 1° |
| 2026-05-05 08:04 | 47.33142 | 8.89227 | 17920 ft | 463 kts | 2° |
| 2026-05-05 08:05 | 47.36324 | 8.89462 | 17920 ft | 463 kts | 2° |
| 2026-05-05 08:05 | 47.39546 | 8.89694 | 17922 ft | 463 kts | 2° |
| 2026-05-05 08:05 | 47.42776 | 8.89923 | 17923 ft | 463 kts | 2° |
| 2026-05-05 08:05 | 47.46002 | 8.90152 | 17927 ft | 463 kts | 2° |
| 2026-05-05 08:06 | 47.49230 | 8.90383 | 17926 ft | 463 kts | 2° |
| 2026-05-05 08:06 | 47.52419 | 8.90614 | 17926 ft | 463 kts | 2° |
| 2026-05-05 08:06 | 47.55653 | 8.90847 | 17924 ft | 463 kts | 2° |
| 2026-05-05 08:06 | 47.58881 | 8.91076 | 17923 ft | 463 kts | 2° |
| 2026-05-05 08:07 | 47.62069 | 8.91302 | 17925 ft | 463 kts | 2° |
| 2026-05-05 08:07 | 47.65290 | 8.91533 | 17919 ft | 463 kts | 2° |
| 2026-05-05 08:07 | 47.68512 | 8.91770 | 17920 ft | 463 kts | 2° |
| 2026-05-05 08:07 | 47.71738 | 8.92009 | 17906 ft | 463 kts | 2° |
| 2026-05-05 08:08 | 47.74965 | 8.92249 | 17905 ft | 463 kts | 2° |
| 2026-05-05 08:08 | 47.78188 | 8.92490 | 17901 ft | 463 kts | 2° |
| 2026-05-05 08:08 | 47.81365 | 8.92725 | 17895 ft | 463 kts | 2° |
| 2026-05-05 08:08 | 47.84580 | 8.92966 | 17893 ft | 463 kts | 2° |
| 2026-05-05 08:09 | 47.87799 | 8.93204 | 17893 ft | 462 kts | 2° |
| 2026-05-05 08:09 | 47.91012 | 8.93436 | 17894 ft | 462 kts | 2° |
| 2026-05-05 08:09 | 47.94222 | 8.93667 | 17897 ft | 462 kts | 2° |
| 2026-05-05 08:09 | 47.97438 | 8.93902 | 17886 ft | 462 kts | 2° |
| 2026-05-05 08:10 | 48.00646 | 8.94140 | 17891 ft | 461 kts | 2° |
| 2026-05-05 08:10 | 48.03854 | 8.94378 | 17891 ft | 461 kts | 2° |
| 2026-05-05 08:10 | 48.07066 | 8.94616 | 17891 ft | 461 kts | 2° |
| 2026-05-05 08:10 | 48.10266 | 8.94856 | 17893 ft | 461 kts | 2° |
| 2026-05-05 08:11 | 48.13483 | 8.95096 | 17890 ft | 461 kts | 2° |
| 2026-05-05 08:11 | 48.16654 | 8.95333 | 17890 ft | 461 kts | 2° |
| 2026-05-05 08:11 | 48.19897 | 8.95664 | 17890 ft | 461 kts | 4° |
| 2026-05-05 08:11 | 48.23065 | 8.96108 | 17893 ft | 462 kts | 6° |
| 2026-05-05 08:12 | 48.26263 | 8.96632 | 17894 ft | 461 kts | 6° |
| 2026-05-05 08:12 | 48.29464 | 8.97187 | 17893 ft | 461 kts | 6° |
| 2026-05-05 08:12 | 48.32654 | 8.97733 | 17893 ft | 461 kts | 6° |
| 2026-05-05 08:12 | 48.35845 | 8.98253 | 17887 ft | 461 kts | 6° |
| 2026-05-05 08:13 | 48.39042 | 8.98751 | 17890 ft | 461 kts | 6° |
| 2026-05-05 08:13 | 48.42235 | 8.99233 | 17887 ft | 461 kts | 5° |
| 2026-05-05 08:13 | 48.45431 | 8.99711 | 17886 ft | 461 kts | 5° |
| 2026-05-05 08:13 | 48.48634 | 9.00189 | 17892 ft | 461 kts | 5° |
| 2026-05-05 08:14 | 48.51831 | 9.00667 | 17893 ft | 461 kts | 5° |
| 2026-05-05 08:14 | 48.54987 | 9.01142 | 17895 ft | 461 kts | 5° |
| 2026-05-05 08:14 | 48.58176 | 9.01625 | 17887 ft | 461 kts | 6° |
| 2026-05-05 08:14 | 48.61384 | 9.02120 | 17886 ft | 461 kts | 6° |
| 2026-05-05 08:15 | 48.64582 | 9.02658 | 17886 ft | 461 kts | 7° |
| 2026-05-05 08:15 | 48.67769 | 9.03331 | 17885 ft | 461 kts | 8° |
| 2026-05-05 08:15 | 48.70895 | 9.04096 | 17887 ft | 461 kts | 9° |
| 2026-05-05 08:15 | 48.74064 | 9.04921 | 17883 ft | 461 kts | 10° |
| 2026-05-05 08:16 | 48.77235 | 9.05753 | 17889 ft | 461 kts | 10° |
| 2026-05-05 08:16 | 48.80396 | 9.06562 | 17886 ft | 461 kts | 9° |
| 2026-05-05 08:16 | 48.83573 | 9.07346 | 17884 ft | 461 kts | 9° |
| 2026-05-05 08:16 | 48.86744 | 9.08108 | 17883 ft | 461 kts | 9° |
| 2026-05-05 08:17 | 48.89927 | 9.08813 | 17891 ft | 461 kts | 7° |
| 2026-05-05 08:17 | 48.93083 | 9.09355 | 17881 ft | 461 kts | 6° |
| 2026-05-05 08:17 | 48.96282 | 9.09790 | 17888 ft | 461 kts | 4° |
| 2026-05-05 08:17 | 48.99487 | 9.10169 | 17880 ft | 462 kts | 4° |
| 2026-05-05 08:18 | 49.02690 | 9.10543 | 17870 ft | 462 kts | 4° |
| 2026-05-05 08:18 | 49.05896 | 9.10941 | 17870 ft | 461 kts | 5° |
| 2026-05-05 08:18 | 49.09025 | 9.11358 | 17878 ft | 440 kts | 5° |
| 2026-05-05 08:18 | 49.11992 | 9.11776 | 17874 ft | 430 kts | 5° |
| 2026-05-05 08:19 | 49.14943 | 9.12205 | 17713 ft | 419 kts | 5° |
| 2026-05-05 08:19 | 49.17809 | 9.12628 | 17446 ft | 409 kts | 5° |
| 2026-05-05 08:19 | 49.20635 | 9.13044 | 17181 ft | 405 kts | 5° |
| 2026-05-05 08:19 | 49.23437 | 9.13455 | 16848 ft | 400 kts | 5° |
| 2026-05-05 08:20 | 49.26164 | 9.13849 | 16304 ft | 397 kts | 5° |
| 2026-05-05 08:20 | 49.28906 | 9.14361 | 15752 ft | 396 kts | 11° |
| 2026-05-05 08:20 | 49.31588 | 9.15292 | 15211 ft | 394 kts | 12° |
| 2026-05-05 08:20 | 49.34252 | 9.16236 | 14677 ft | 392 kts | 12° |
| 2026-05-05 08:21 | 49.36914 | 9.17179 | 14131 ft | 391 kts | 12° |
| 2026-05-05 08:21 | 49.39563 | 9.18118 | 13596 ft | 390 kts | 12° |
| 2026-05-05 08:21 | 49.42213 | 9.19058 | 13017 ft | 388 kts | 12° |
| 2026-05-05 08:21 | 49.44825 | 9.19986 | 12488 ft | 383 kts | 12° |
| 2026-05-05 08:22 | 49.47414 | 9.20906 | 11962 ft | 379 kts | 12° |
| 2026-05-05 08:22 | 49.49969 | 9.21815 | 11450 ft | 375 kts | 12° |
| 2026-05-05 08:22 | 49.52495 | 9.22717 | 10938 ft | 370 kts | 12° |
| 2026-05-05 08:22 | 49.54982 | 9.23605 | 10679 ft | 361 kts | 12° |
| 2026-05-05 08:23 | 49.57423 | 9.24475 | 10591 ft | 358 kts | 12° |
| 2026-05-05 08:23 | 49.59810 | 9.25327 | 10476 ft | 350 kts | 12° |
| 2026-05-05 08:23 | 49.62142 | 9.26159 | 10350 ft | 337 kts | 12° |
| 2026-05-05 08:23 | 49.64381 | 9.26959 | 10230 ft | 325 kts | 13° |
| 2026-05-05 08:24 | 49.66552 | 9.27740 | 10110 ft | 314 kts | 13° |
| 2026-05-05 08:24 | 49.68649 | 9.28499 | 9929 ft | 305 kts | 13° |
| 2026-05-05 08:24 | 49.70702 | 9.29240 | 9788 ft | 300 kts | 13° |
| 2026-05-05 08:24 | 49.72734 | 9.29968 | 9718 ft | 300 kts | 13° |
| 2026-05-05 08:25 | 49.74741 | 9.30689 | 9652 ft | 300 kts | 13° |
| 2026-05-05 08:25 | 49.76774 | 9.31420 | 9573 ft | 299 kts | 13° |
| 2026-05-05 08:25 | 49.78801 | 9.32149 | 9513 ft | 299 kts | 13° |
| 2026-05-05 08:25 | 49.80828 | 9.32879 | 9442 ft | 298 kts | 13° |
| 2026-05-05 08:26 | 49.82874 | 9.33428 | 9368 ft | 298 kts | 359° |
| 2026-05-05 08:26 | 49.84888 | 9.32801 | 9289 ft | 297 kts | 334° |
| 2026-05-05 08:26 | 49.86530 | 9.30932 | 9220 ft | 292 kts | 308° |
| 2026-05-05 08:26 | 49.87508 | 9.28219 | 9144 ft | 287 kts | 285° |
| 2026-05-05 08:27 | 49.88080 | 9.25251 | 9068 ft | 287 kts | 284° |
| 2026-05-05 08:27 | 49.88645 | 9.22277 | 8984 ft | 287 kts | 285° |
| 2026-05-05 08:27 | 49.89533 | 9.19537 | 8851 ft | 290 kts | 307° |
| 2026-05-05 08:27 | 49.91065 | 9.17509 | 8723 ft | 293 kts | 330° |
| 2026-05-05 08:28 | 49.92925 | 9.16203 | 8588 ft | 293 kts | 335° |
| 2026-05-05 08:28 | 49.94805 | 9.14950 | 8462 ft | 293 kts | 335° |
| 2026-05-05 08:28 | 49.96683 | 9.13702 | 8331 ft | 293 kts | 335° |
| 2026-05-05 08:28 | 49.98582 | 9.12567 | 8216 ft | 292 kts | 343° |
| 2026-05-05 08:29 | 50.00557 | 9.12050 | 8090 ft | 292 kts | 356° |
| 2026-05-05 08:29 | 50.02582 | 9.12203 | 7963 ft | 292 kts | 9° |
| 2026-05-05 08:29 | 50.04541 | 9.13019 | 7835 ft | 291 kts | 21° |
| 2026-05-05 08:30 | 50.07904 | 9.16484 | 7582 ft | 290 kts | 47° |
| 2026-05-05 08:30 | 50.09128 | 9.18935 | 7452 ft | 289 kts | 60° |
| 2026-05-05 08:30 | 50.09989 | 9.21747 | 7325 ft | 287 kts | 72° |
| 2026-05-05 08:30 | 50.10654 | 9.24682 | 7200 ft | 286 kts | 72° |
| 2026-05-05 08:31 | 50.11326 | 9.27609 | 7075 ft | 286 kts | 72° |
| 2026-05-05 08:31 | 50.12001 | 9.30527 | 6962 ft | 286 kts | 72° |
| 2026-05-05 08:31 | 50.12675 | 9.33442 | 6830 ft | 285 kts | 72° |
| 2026-05-05 08:31 | 50.13345 | 9.36353 | 6707 ft | 285 kts | 72° |
| 2026-05-05 08:32 | 50.14002 | 9.39226 | 6588 ft | 284 kts | 72° |
| 2026-05-05 08:32 | 50.14663 | 9.42129 | 6466 ft | 284 kts | 72° |
| 2026-05-05 08:32 | 50.15327 | 9.45028 | 6346 ft | 283 kts | 72° |
| 2026-05-05 08:32 | 50.15989 | 9.47917 | 6227 ft | 283 kts | 72° |
| 2026-05-05 08:33 | 50.16647 | 9.50804 | 6092 ft | 282 kts | 72° |
| 2026-05-05 08:33 | 50.17301 | 9.53691 | 5962 ft | 281 kts | 72° |
| 2026-05-05 08:33 | 50.17950 | 9.56571 | 5868 ft | 280 kts | 72° |
| 2026-05-05 08:33 | 50.18596 | 9.59449 | 5882 ft | 280 kts | 72° |
| 2026-05-05 08:34 | 50.19234 | 9.62282 | 5883 ft | 281 kts | 72° |
| 2026-05-05 08:34 | 50.19881 | 9.65164 | 5883 ft | 281 kts | 72° |
| 2026-05-05 08:34 | 50.20525 | 9.68044 | 5881 ft | 280 kts | 72° |
| 2026-05-05 08:34 | 50.21162 | 9.70912 | 5884 ft | 279 kts | 72° |
| 2026-05-05 08:35 | 50.21796 | 9.73779 | 5880 ft | 278 kts | 72° |
| 2026-05-05 08:35 | 50.22429 | 9.76602 | 5881 ft | 278 kts | 69° |
| 2026-05-05 08:35 | 50.23468 | 9.79139 | 5879 ft | 280 kts | 46° |
| 2026-05-05 08:35 | 50.25078 | 9.80827 | 5750 ft | 279 kts | 20° |
| 2026-05-05 08:36 | 50.26974 | 9.81320 | 5621 ft | 277 kts | 355° |
| 2026-05-05 08:36 | 50.28817 | 9.80573 | 5492 ft | 274 kts | 331° |
| 2026-05-05 08:36 | 50.30298 | 9.78744 | 5366 ft | 271 kts | 308° |
| 2026-05-05 08:36 | 50.31185 | 9.76174 | 5238 ft | 269 kts | 285° |
| 2026-05-05 08:37 | 50.31354 | 9.73296 | 5118 ft | 267 kts | 262° |
| 2026-05-05 08:37 | 50.30901 | 9.70532 | 5003 ft | 266 kts | 252° |
| 2026-05-05 08:37 | 50.30361 | 9.67789 | 4990 ft | 263 kts | 252° |
| 2026-05-05 08:37 | 50.29823 | 9.65049 | 4996 ft | 263 kts | 252° |
| 2026-05-05 08:38 | 50.29288 | 9.62312 | 4997 ft | 263 kts | 252° |
| 2026-05-05 08:38 | 50.28754 | 9.59573 | 4994 ft | 263 kts | 251° |
| 2026-05-05 08:38 | 50.28219 | 9.56838 | 4993 ft | 263 kts | 251° |
| 2026-05-05 08:38 | 50.27683 | 9.54091 | 4994 ft | 264 kts | 252° |
| 2026-05-05 08:39 | 50.27149 | 9.51344 | 4992 ft | 264 kts | 251° |
| 2026-05-05 08:39 | 50.26610 | 9.48597 | 4993 ft | 264 kts | 252° |
| 2026-05-05 08:39 | 50.26253 | 9.46781 | 4995 ft | 264 kts | 252° |
| 2026-05-05 08:39 | 50.25536 | 9.43129 | 4994 ft | 265 kts | 252° |
| 2026-05-05 08:40 | 50.24992 | 9.40373 | 4993 ft | 265 kts | 251° |
| 2026-05-05 08:40 | 50.24606 | 9.38557 | 4994 ft | 265 kts | 250° |
| 2026-05-05 08:40 | 50.23990 | 9.35843 | 4995 ft | 265 kts | 249° |
| 2026-05-05 08:40 | 50.23148 | 9.32256 | 4993 ft | 265 kts | 249° |
| 2026-05-05 08:41 | 50.22508 | 9.29550 | 4990 ft | 265 kts | 249° |
| 2026-05-05 08:41 | 50.22085 | 9.27754 | 4994 ft | 265 kts | 249° |
| 2026-05-05 08:41 | 50.21450 | 9.25051 | 4993 ft | 265 kts | 249° |
| 2026-05-05 08:41 | 50.20819 | 9.22344 | 4995 ft | 265 kts | 249° |
| 2026-05-05 08:42 | 50.20189 | 9.19631 | 4999 ft | 265 kts | 249° |
| 2026-05-05 08:42 | 50.19575 | 9.16983 | 4987 ft | 251 kts | 249° |
| 2026-05-05 08:42 | 50.19001 | 9.14503 | 4988 ft | 234 kts | 249° |
| 2026-05-05 08:42 | 50.18467 | 9.12189 | 4989 ft | 220 kts | 249° |
| 2026-05-05 08:43 | 50.17956 | 9.09990 | 4990 ft | 217 kts | 248° |
| 2026-05-05 08:43 | 50.17437 | 9.07770 | 4992 ft | 217 kts | 248° |
| 2026-05-05 08:43 | 50.16918 | 9.05558 | 4991 ft | 217 kts | 248° |
| 2026-05-05 08:43 | 50.16395 | 9.03334 | 4994 ft | 217 kts | 248° |
| 2026-05-05 08:44 | 50.15876 | 9.01124 | 4991 ft | 217 kts | 248° |
| 2026-05-05 08:44 | 50.15359 | 8.98916 | 4995 ft | 216 kts | 248° |
| 2026-05-05 08:44 | 50.14843 | 8.96714 | 4995 ft | 216 kts | 248° |
| 2026-05-05 08:44 | 50.14325 | 8.94505 | 4999 ft | 216 kts | 248° |
| 2026-05-05 08:45 | 50.13824 | 8.92373 | 4994 ft | 205 kts | 248° |
| 2026-05-05 08:45 | 50.13345 | 8.90330 | 4996 ft | 197 kts | 248° |
| 2026-05-05 08:45 | 50.12874 | 8.88332 | 4998 ft | 195 kts | 248° |
| 2026-05-05 08:45 | 50.12400 | 8.86352 | 4963 ft | 196 kts | 248° |
| 2026-05-05 08:46 | 50.11929 | 8.84363 | 4762 ft | 196 kts | 248° |
| 2026-05-05 08:46 | 50.11454 | 8.82348 | 4517 ft | 195 kts | 248° |
| 2026-05-05 08:46 | 50.10994 | 8.80397 | 4231 ft | 193 kts | 249° |
| 2026-05-05 08:46 | 50.10534 | 8.78445 | 3950 ft | 190 kts | 249° |
| 2026-05-05 08:47 | 50.10080 | 8.76526 | 3669 ft | 187 kts | 249° |
| 2026-05-05 08:47 | 50.09633 | 8.74635 | 3425 ft | 184 kts | 249° |
| 2026-05-05 08:47 | 50.09199 | 8.72797 | 3162 ft | 181 kts | 249° |
| 2026-05-05 08:47 | 50.08765 | 8.70968 | 2912 ft | 178 kts | 249° |
| 2026-05-05 08:48 | 50.08343 | 8.69187 | 2664 ft | 173 kts | 249° |
| 2026-05-05 08:48 | 50.07932 | 8.67452 | 2418 ft | 169 kts | 249° |
| 2026-05-05 08:48 | 50.07528 | 8.65750 | 2179 ft | 165 kts | 249° |
| 2026-05-05 08:48 | 50.07150 | 8.64158 | 1954 ft | 150 kts | 250° |
| 2026-05-05 08:49 | 50.06797 | 8.62672 | 1743 ft | 143 kts | 250° |
| 2026-05-05 08:49 | 50.06454 | 8.61234 | 1539 ft | 141 kts | 250° |
| 2026-05-05 08:49 | 50.06119 | 8.59822 | 1341 ft | 139 kts | 250° |
| 2026-05-05 08:49 | 50.05782 | 8.58410 | 1137 ft | 139 kts | 250° |
| 2026-05-05 08:50 | 50.05446 | 8.56999 | 938 ft | 139 kts | 250° |
| 2026-05-05 08:50 | 50.05111 | 8.55593 | 696 ft | 138 kts | 251° |
| 2026-05-05 08:50 | 50.04780 | 8.54190 | 521 ft | 138 kts | 251° |
| 2026-05-05 08:50 | 50.04445 | 8.52797 | 365 ft | 137 kts | 251° |
| 2026-05-05 08:51 | 50.04141 | 8.51519 | 330 ft | 109 kts | 249° |
| 2026-05-05 08:51 | 50.03961 | 8.50774 | 322 ft | 39 kts | 250° |
| 2026-05-05 08:51 | 50.03872 | 8.50445 | 321 ft | 31 kts | 234° |
| 2026-05-05 08:51 | 50.03749 | 8.50260 | 319 ft | 18 kts | 220° |
| 2026-05-05 08:52 | 50.03669 | 8.50184 | 322 ft | 11 kts | 185° |
| 2026-05-05 08:52 | 50.03625 | 8.50230 | 324 ft | 7 kts | 110° |
| 2026-05-05 08:52 | 50.03634 | 8.50310 | 325 ft | 8 kts | 71° |
| 2026-05-05 08:52 | 50.03662 | 8.50427 | 327 ft | 13 kts | 70° |
| 2026-05-05 08:53 | 50.03691 | 8.50548 | 328 ft | 11 kts | 69° |
| 2026-05-05 08:53 | 50.03713 | 8.50641 | 328 ft | 8 kts | 69° |
| 2026-05-05 08:53 | 50.03730 | 8.50711 | 329 ft | 8 kts | 70° |
| 2026-05-05 08:53 | 50.03761 | 8.50838 | 331 ft | 17 kts | 69° |
| 2026-05-05 08:54 | 50.03804 | 8.51020 | 334 ft | 19 kts | 69° |
| 2026-05-05 08:54 | 50.03852 | 8.51221 | 331 ft | 21 kts | 69° |
| 2026-05-05 08:54 | 50.03906 | 8.51444 | 335 ft | 23 kts | 69° |
| 2026-05-05 08:54 | 50.03964 | 8.51685 | 336 ft | 25 kts | 69° |
| 2026-05-05 08:55 | 50.04026 | 8.51946 | 335 ft | 26 kts | 70° |
| 2026-05-05 08:55 | 50.04089 | 8.52211 | 348 ft | 26 kts | 69° |
| 2026-05-05 08:55 | 50.04154 | 8.52479 | 353 ft | 26 kts | 70° |
| 2026-05-05 08:55 | 50.04218 | 8.52749 | 358 ft | 27 kts | 70° |
| 2026-05-05 08:56 | 50.04284 | 8.53022 | 361 ft | 27 kts | 69° |
| 2026-05-05 08:56 | 50.04347 | 8.53288 | 367 ft | 24 kts | 70° |
| 2026-05-05 08:56 | 50.04395 | 8.53518 | 375 ft | 22 kts | 81° |
| 2026-05-05 08:56 | 50.04412 | 8.53761 | 375 ft | 24 kts | 83° |
| 2026-05-05 08:57 | 50.04429 | 8.54028 | 375 ft | 26 kts | 84° |
| 2026-05-05 08:57 | 50.04446 | 8.54294 | 375 ft | 22 kts | 84° |
| 2026-05-05 08:57 | 50.04439 | 8.54551 | 369 ft | 23 kts | 108° |
| 2026-05-05 08:57 | 50.04334 | 8.54754 | 358 ft | 21 kts | 150° |
| 2026-05-05 08:58 | 50.04208 | 8.54833 | 355 ft | 17 kts | 160° |
| 2026-05-05 08:58 | 50.04083 | 8.54903 | 353 ft | 20 kts | 160° |
| 2026-05-05 08:58 | 50.04018 | 8.54979 | 355 ft | 10 kts | 105° |
| 2026-05-05 08:58 | 50.04033 | 8.55079 | 358 ft | 12 kts | 69° |
| 2026-05-05 08:59 | 50.04079 | 8.55269 | 353 ft | 21 kts | 69° |
| 2026-05-05 08:59 | 50.04135 | 8.55503 | 354 ft | 24 kts | 70° |
| 2026-05-05 08:59 | 50.04189 | 8.55728 | 356 ft | 18 kts | 69° |
| 2026-05-05 08:59 | 50.04203 | 8.55789 | 358 ft | 0 kts | 70° |
| 2026-05-05 09:02 | 50.04211 | 8.55821 | 356 ft | 3 kts | 70° |
| 2026-05-05 09:02 | 50.04225 | 8.55882 | 357 ft | 7 kts | 70° |
| 2026-05-05 09:02 | 50.04273 | 8.55961 | 360 ft | 16 kts | 12° |
| 2026-05-05 09:03 | 50.04381 | 8.55907 | 360 ft | 17 kts | 338° |
| 2026-05-05 09:03 | 50.04497 | 8.55920 | 358 ft | 18 kts | 23° |
| 2026-05-05 09:03 | 50.04581 | 8.56075 | 356 ft | 21 kts | 71° |
| 2026-05-05 09:03 | 50.04632 | 8.56289 | 360 ft | 18 kts | 69° |
| 2026-05-05 09:04 | 50.04649 | 8.56438 | 359 ft | 10 kts | 131° |
| 2026-05-05 09:04 | 50.04651 | 8.56523 | 360 ft | 8 kts | 57° |
| 2026-05-05 09:04 | 50.04657 | 8.56594 | 360 ft | 6 kts | 107° |
| 2026-05-05 09:04 | 50.04641 | 8.56650 | 359 ft | 1 kts | 114° |
| 2026-05-05 09:05 | 50.04637 | 8.56662 | 357 ft | 0 kts | 114° |